Time;durP1;ratioP1;P1;durP2;ratioP2;P2;SDS_P1;SDS_P2;PMS_P1;PMS_P2;Temp;Humidity;BMP_temperature;BMP_pressure;BME280_temperature;BME280_humidity;BME280_pressure;Samples;Min_cycle;Max_cycle;Signal;HPM_P1;HPM_P2
2021/07/07 00:02:14;;;;;;;9.10;6.00;;;;;;;19.85;100.00;94665.47;10566896;28;20031;-75
2021/07/07 00:07:15;;;;;;;5.93;5.10;;;;;;;19.77;100.00;94670.63;10566039;28;20034;-75
2021/07/07 00:12:15;;;;;;;8.13;5.87;;;;;;;19.52;100.00;94664.25;10566762;28;20326;-75
2021/07/07 00:17:16;;;;;;;7.47;6.32;;;;;;;19.44;100.00;94660.44;10553195;27;20035;-75
2021/07/07 00:22:17;;;;;;;7.43;6.03;;;;;;;19.44;100.00;94663.19;10601056;27;20097;-75
2021/07/07 00:27:17;;;;;;;11.73;6.97;;;;;;;19.31;100.00;94669.66;10566768;28;20269;-76
2021/07/07 00:32:18;;;;;;;8.60;6.17;;;;;;;19.29;100.00;94663.75;10566126;28;20023;-75
2021/07/07 00:37:18;;;;;;;10.18;6.57;;;;;;;19.30;100.00;94665.38;10578633;28;20031;-76
2021/07/07 00:42:19;;;;;;;11.00;6.27;;;;;;;19.22;100.00;94667.00;10590513;28;20023;-75
2021/07/07 00:47:19;;;;;;;8.53;5.93;;;;;;;19.08;100.00;94663.72;10572062;28;20031;-75
2021/07/07 00:52:20;;;;;;;9.67;6.37;;;;;;;18.99;100.00;94665.69;10606254;27;20268;-75
2021/07/07 00:57:25;;;;;;;10.70;6.30;;;;;;;19.05;100.00;94670.63;10616645;27;20073;-76
2021/07/07 01:02:27;;;;;;;8.02;5.95;;;;;;;18.98;100.00;94672.25;10618423;27;20474;-76
2021/07/07 01:07:27;;;;;;;10.55;7.10;;;;;;;18.93;100.00;94678.69;10598292;27;20488;-75
2021/07/07 01:12:29;;;;;;;10.13;5.87;;;;;;;18.88;100.00;94674.25;10574301;28;20023;-75
2021/07/07 01:17:32;;;;;;;10.45;5.95;;;;;;;18.78;100.00;94677.28;10557653;27;20047;-76
2021/07/07 01:22:32;;;;;;;7.70;5.95;;;;;;;18.69;100.00;94677.31;10591861;27;20054;-75
2021/07/07 01:27:33;;;;;;;13.93;6.03;;;;;;;18.57;100.00;94675.28;10573347;28;20747;-76
2021/07/07 01:32:33;;;;;;;9.90;6.63;;;;;;;18.54;100.00;94666.97;10572738;28;20284;-75
2021/07/07 01:37:34;;;;;;;7.88;6.07;;;;;;;18.51;100.00;94665.69;10572419;28;20074;-75
2021/07/07 01:42:35;;;;;;;15.95;6.72;;;;;;;18.42;100.00;94654.06;10572246;28;20778;-75
2021/07/07 01:47:36;;;;;;;7.57;5.72;;;;;;;18.48;100.00;94666.34;10553545;28;20067;-75
2021/07/07 01:52:36;;;;;;;12.00;6.25;;;;;;;18.52;100.00;94667.31;10571991;28;20589;-76
2021/07/07 01:57:43;;;;;;;10.70;6.93;;;;;;;18.47;100.00;94672.91;10553127;28;20059;-75
2021/07/07 02:02:45;;;;;;;10.02;6.47;;;;;;;18.37;100.00;94676.00;10553426;28;20441;-75
2021/07/07 02:07:46;;;;;;;8.82;6.10;;;;;;;18.47;100.00;94683.78;10571747;28;20024;-75
2021/07/07 02:12:46;;;;;;;9.07;6.77;;;;;;;18.33;100.00;94696.81;10571387;28;20031;-75
2021/07/07 02:17:48;;;;;;;12.82;6.70;;;;;;;18.06;100.00;94701.50;10570704;28;20273;-76
2021/07/07 02:22:49;;;;;;;9.85;6.82;;;;;;;17.95;100.00;94716.53;10571058;28;20534;-75
2021/07/07 02:27:51;;;;;;;10.43;6.60;;;;;;;17.60;100.00;94728.16;10569490;28;20030;-75
2021/07/07 02:32:52;;;;;;;11.43;7.35;;;;;;;17.37;100.00;94725.56;10569661;28;20031;-75
2021/07/07 02:37:54;;;;;;;12.43;7.40;;;;;;;17.32;100.00;94728.41;10569961;28;20068;-75
2021/07/07 02:42:55;;;;;;;12.85;7.50;;;;;;;17.08;100.00;94723.41;10569025;28;20015;-75
2021/07/07 02:47:56;;;;;;;11.48;7.30;;;;;;;16.97;100.00;94730.22;10570321;28;20031;-75
2021/07/07 02:52:56;;;;;;;11.27;6.95;;;;;;;16.84;100.00;94732.72;10551519;28;20024;-75
2021/07/07 02:57:57;;;;;;;9.63;6.85;;;;;;;16.83;100.00;94725.69;10573600;27;20051;-75
2021/07/07 03:03:02;;;;;;;9.45;7.10;;;;;;;16.85;100.00;94726.16;10567923;27;20022;-75
2021/07/07 03:08:03;;;;;;;11.63;7.70;;;;;;;16.86;100.00;94725.03;10606366;27;20027;-75
2021/07/07 03:13:03;;;;;;;11.32;7.57;;;;;;;16.91;100.00;94727.66;10587208;27;20390;-75
2021/07/07 03:18:05;;;;;;;13.53;7.43;;;;;;;16.97;100.00;94733.75;10569171;28;20036;-76
2021/07/07 03:23:07;;;;;;;11.27;7.40;;;;;;;17.04;100.00;94722.44;10554686;28;20328;-76
2021/07/07 03:28:08;;;;;;;12.55;7.93;;;;;;;17.16;100.00;94728.03;10526809;28;20433;-75
2021/07/07 03:33:08;;;;;;;14.98;7.80;;;;;;;17.30;100.00;94727.13;10525937;28;20035;-75
2021/07/07 03:38:09;;;;;;;8.50;7.10;;;;;;;17.52;100.00;94737.88;10525700;28;20020;-75
2021/07/07 03:43:09;;;;;;;10.07;7.55;;;;;;;17.76;100.00;94737.44;10525518;28;20024;-76
2021/07/07 03:48:10;;;;;;;9.68;7.00;;;;;;;17.82;100.00;94740.81;10547264;28;20032;-75
2021/07/07 03:53:11;;;;;;;12.13;8.30;;;;;;;18.07;100.00;94750.13;10556166;28;20031;-75
2021/07/07 03:58:11;;;;;;;12.30;7.50;;;;;;;18.18;100.00;94753.31;10539633;28;20035;-76
2021/07/07 04:03:12;;;;;;;10.68;7.20;;;;;;;18.22;100.00;94757.00;10522696;28;20020;-76
2021/07/07 04:08:12;;;;;;;14.00;8.73;;;;;;;18.02;100.00;94765.78;10524455;28;20024;-76
2021/07/07 04:13:12;;;;;;;9.47;6.97;;;;;;;18.09;100.00;94764.19;10552252;28;20023;-75
2021/07/07 04:18:13;;;;;;;10.23;7.17;;;;;;;18.13;100.00;94756.19;10534369;28;20039;-77
2021/07/07 04:23:13;;;;;;;19.40;11.47;;;;;;;18.09;100.00;94764.19;10538473;28;20306;-77
2021/07/07 04:28:14;;;;;;;14.20;9.45;;;;;;;18.31;100.00;94765.16;10565735;28;20274;-77
2021/07/07 04:33:14;;;;;;;7.83;6.67;;;;;;;18.80;100.00;94767.63;10565833;28;20475;-75
2021/07/07 04:38:14;;;;;;;11.20;6.47;;;;;;;19.06;100.00;94774.91;10565326;28;20028;-76
2021/07/07 04:43:15;;;;;;;11.30;7.37;;;;;;;19.39;100.00;94777.81;10547619;28;20028;-76
2021/07/07 04:48:15;;;;;;;11.50;7.37;;;;;;;19.91;100.00;94776.78;10566343;28;20398;-75
2021/07/07 04:53:16;;;;;;;8.10;7.10;;;;;;;20.73;100.00;94780.13;10603168;28;20370;-75
2021/07/07 04:58:16;;;;;;;9.07;6.80;;;;;;;21.14;100.00;94786.56;10608229;28;20268;-75
2021/07/07 05:03:17;;;;;;;13.38;6.93;;;;;;;21.63;100.00;94788.59;10607556;28;20287;-75
2021/07/07 05:08:17;;;;;;;9.07;6.77;;;;;;;22.05;100.00;94791.03;10608336;28;20547;-76
2021/07/07 05:13:18;;;;;;;15.83;6.43;;;;;;;22.56;100.00;94785.09;10596368;28;20038;-75
2021/07/07 05:18:19;;;;;;;11.07;6.80;;;;;;;23.24;100.00;94786.13;10595566;28;20027;-76
2021/07/07 05:23:19;;;;;;;11.32;6.32;;;;;;;23.87;100.00;94784.50;10592828;28;20043;-76
2021/07/07 05:28:20;;;;;;;8.07;6.40;;;;;;;24.42;98.58;94790.03;10585239;28;20104;-75
2021/07/07 05:33:20;;;;;;;10.97;7.00;;;;;;;24.98;96.22;94788.78;10579361;27;20035;-76
2021/07/07 05:38:20;;;;;;;12.40;6.47;;;;;;;24.99;97.94;94789.56;10558595;27;20280;-76
2021/07/07 05:43:22;;;;;;;11.00;6.20;;;;;;;25.90;89.68;94790.75;10600843;27;20039;-76
2021/07/07 05:48:22;;;;;;;10.68;6.57;;;;;;;26.69;81.08;94793.00;10608799;27;20029;-76
2021/07/07 05:53:23;;;;;;;12.93;6.50;;;;;;;26.79;80.29;94797.84;10596723;27;20027;-76
2021/07/07 05:58:24;;;;;;;10.73;6.00;;;;;;;26.70;75.40;94795.41;10573603;28;20500;-75
2021/07/07 06:03:24;;;;;;;13.55;6.68;;;;;;;27.81;72.48;94789.38;10572337;28;20493;-75
2021/07/07 06:08:25;;;;;;;22.37;6.70;;;;;;;28.64;64.86;94799.00;10572474;28;20494;-75
2021/07/07 06:13:26;;;;;;;15.98;7.07;;;;;;;29.08;60.54;94790.84;10572012;28;20027;-75
2021/07/07 06:18:27;;;;;;;12.50;6.78;;;;;;;29.93;55.48;94797.72;10571063;28;20028;-75
2021/07/07 06:23:27;;;;;;;11.27;6.75;;;;;;;30.40;55.20;94797.63;10582547;27;20048;-75
2021/07/07 06:28:27;;;;;;;13.47;6.37;;;;;;;31.46;49.10;94796.78;10571371;28;20079;-75
2021/07/07 06:33:28;;;;;;;11.95;6.70;;;;;;;31.10;47.63;94796.22;10555467;27;20027;-76
2021/07/07 06:38:28;;;;;;;12.38;6.05;;;;;;;31.38;46.56;94803.59;10577609;27;20024;-75
2021/07/07 06:43:29;;;;;;;12.53;6.97;;;;;;;31.97;46.11;94796.41;10584655;27;20399;-75
2021/07/07 06:48:29;;;;;;;15.10;6.77;;;;;;;33.01;45.25;94788.97;10568035;27;20358;-75
2021/07/07 06:53:29;;;;;;;16.20;6.77;;;;;;;33.49;43.06;94787.94;10570864;28;20030;-76
2021/07/07 06:58:30;;;;;;;14.20;5.90;;;;;;;34.13;41.06;94790.13;10599964;27;20034;-76
2021/07/07 07:03:31;;;;;;;16.85;6.18;;;;;;;34.74;39.90;94789.78;10612767;27;20023;-75
2021/07/07 07:08:32;;;;;;;17.90;6.70;;;;;;;32.23;44.36;94785.88;10597477;27;20030;-75
2021/07/07 07:13:33;;;;;;;15.57;5.70;;;;;;;33.93;42.63;94790.06;10597109;27;20045;-75
2021/07/07 07:18:34;;;;;;;8.20;5.38;;;;;;;35.47;38.73;94786.28;10589264;27;20062;-75
2021/07/07 07:23:34;;;;;;;15.73;5.40;;;;;;;35.15;37.94;94789.75;10613075;27;20878;-75
2021/07/07 07:28:35;;;;;;;10.27;5.18;;;;;;;36.14;37.47;94787.88;10613318;27;20054;-75
2021/07/07 07:33:35;;;;;;;8.70;5.37;;;;;;;36.63;35.79;94789.03;10613136;27;20493;-75
2021/07/07 07:38:42;;;;;;;14.27;4.80;;;;;;;37.61;33.46;94782.94;10574406;27;20023;-75
2021/07/07 07:43:43;;;;;;;11.02;4.35;;;;;;;36.93;33.90;94779.41;10574452;28;20123;-75
2021/07/07 07:48:43;;;;;;;9.45;4.53;;;;;;;35.70;34.52;94785.34;10570013;28;20099;-75
2021/07/07 07:53:46;;;;;;;10.23;5.13;;;;;;;36.64;35.04;94782.19;10570017;28;20028;-75
2021/07/07 07:58:47;;;;;;;12.70;4.68;;;;;;;38.02;32.82;94785.28;10568316;28;20505;-75
2021/07/07 08:03:48;;;;;;;9.23;4.88;;;;;;;39.08;32.10;94781.97;10568567;28;20038;-75
2021/07/07 08:08:49;;;;;;;9.95;4.18;;;;;;;39.72;30.28;94783.56;10568652;28;20027;-75
2021/07/07 08:13:49;;;;;;;11.57;4.60;;;;;;;39.84;29.84;94787.50;10569413;28;20420;-75
2021/07/07 08:18:50;;;;;;;12.45;4.68;;;;;;;40.41;28.98;94775.13;10567964;28;20079;-75
2021/07/07 08:23:50;;;;;;;6.33;3.67;;;;;;;37.71;31.00;94781.03;10580306;27;20036;-75
2021/07/07 08:28:50;;;;;;;7.13;3.57;;;;;;;38.38;30.59;94789.72;10567846;28;20031;-75
2021/07/07 08:33:54;;;;;;;9.60;3.67;;;;;;;39.07;29.25;94793.69;10567499;28;20819;-75
2021/07/07 08:38:55;;;;;;;5.47;3.50;;;;;;;40.56;26.71;94793.00;10568092;28;20103;-75
2021/07/07 08:43:55;;;;;;;11.20;4.85;;;;;;;41.46;26.43;94786.16;10569074;28;20085;-75
2021/07/07 08:48:55;;;;;;;8.53;3.80;;;;;;;42.06;26.24;94794.19;10568048;28;20023;-75
2021/07/07 08:53:57;;;;;;;7.47;3.23;;;;;;;40.18;26.88;94794.19;10549075;28;20016;-75
2021/07/07 08:58:57;;;;;;;10.05;2.88;;;;;;;41.03;25.43;94788.13;10549921;28;20027;-75
2021/07/07 09:03:57;;;;;;;5.83;2.70;;;;;;;40.97;25.59;94785.16;10568670;28;20016;-75
2021/07/07 09:08:58;;;;;;;6.00;2.53;;;;;;;42.06;23.99;94782.91;10575792;27;20107;-75
2021/07/07 09:14:13;;;;;;;7.32;3.30;;;;;;;43.19;23.90;94785.19;10577161;27;20059;-75
2021/07/07 09:19:23;;;;;;;4.78;3.03;;;;;;;43.57;23.89;94771.41;10537734;27;20093;-75
2021/07/07 09:24:25;;;;;;;5.28;2.55;;;;;;;43.36;24.32;94786.25;10581152;27;20043;-75
2021/07/07 09:29:37;;;;;;;5.57;2.80;;;;;;;43.25;23.88;94779.63;10590731;27;20114;-76
2021/07/07 09:34:39;;;;;;;5.55;2.78;;;;;;;43.32;23.31;94767.94;10567547;28;20027;-75
2021/07/07 09:39:42;;;;;;;3.97;2.60;;;;;;;44.41;22.14;94782.41;10585123;27;20841;-76
2021/07/07 09:44:45;;;;;;;6.80;2.47;;;;;;;43.83;22.67;94780.84;10575282;28;20031;-75
2021/07/07 09:49:48;;;;;;;7.50;2.42;;;;;;;44.19;22.54;94784.44;10583850;27;20033;-75
2021/07/07 09:54:49;;;;;;;3.17;2.63;;;;;;;44.33;22.11;94787.75;10585673;27;20036;-75
2021/07/07 09:59:50;;;;;;;6.25;2.30;;;;;;;45.23;20.66;94762.47;10579625;27;20453;-76
2021/07/07 10:04:52;;;;;;;4.57;2.80;;;;;;;42.64;23.18;94767.47;10572449;28;20027;-76
2021/07/07 10:09:53;;;;;;;3.00;2.70;;;;;;;41.70;23.50;94764.88;10573422;28;20055;-76
2021/07/07 10:14:54;;;;;;;9.25;3.30;;;;;;;42.62;22.85;94767.19;10574070;28;20536;-76
2021/07/07 10:19:55;;;;;;;6.82;3.17;;;;;;;42.61;22.19;94751.44;10572697;28;20020;-76
2021/07/07 10:24:57;;;;;;;5.22;2.60;;;;;;;42.48;23.94;94751.72;10571884;28;20043;-75
2021/07/07 10:29:58;;;;;;;8.05;2.75;;;;;;;42.15;22.60;94761.03;10573507;28;20023;-75
2021/07/07 10:35:12;;;;;;;7.95;2.60;;;;;;;43.89;22.20;94755.47;10572515;28;20027;-76
2021/07/07 10:40:26;;;;;;;5.13;2.70;;;;;;;41.69;23.09;94758.47;10572487;28;20138;-75
2021/07/07 10:45:42;;;;;;;4.07;2.15;;;;;;;41.82;22.75;94753.41;10553816;28;20030;-75
2021/07/07 10:50:43;;;;;;;5.63;2.72;;;;;;;42.49;24.81;94747.66;10571656;28;20035;-75
2021/07/07 10:55:44;;;;;;;5.90;2.28;;;;;;;44.71;21.22;94752.66;10572001;28;20024;-76
2021/07/07 11:00:44;;;;;;;5.70;2.67;;;;;;;42.49;22.91;94747.66;10571213;28;20027;-76
2021/07/07 11:05:45;;;;;;;4.53;3.07;;;;;;;41.02;24.35;94747.09;10572013;28;20034;-75
2021/07/07 11:10:57;;;;;;;10.60;3.83;;;;;;;38.59;28.19;94751.66;10571954;28;20090;-75
2021/07/07 11:15:58;;;;;;;5.65;4.05;;;;;;;36.31;31.05;94745.91;10571049;28;20031;-75
2021/07/07 11:21:03;;;;;;;6.20;4.10;;;;;;;35.12;34.12;94745.94;10572536;28;20032;-75
2021/07/07 11:26:04;;;;;;;8.10;3.97;;;;;;;34.16;34.21;94744.63;10609580;27;20107;-75
2021/07/07 11:31:04;;;;;;;6.18;3.95;;;;;;;33.91;34.09;94740.31;10613342;27;20359;-75
2021/07/07 11:36:05;;;;;;;13.95;4.63;;;;;;;33.39;35.93;94735.94;10614439;27;20023;-76
2021/07/07 11:41:05;;;;;;;5.35;3.78;;;;;;;32.61;37.28;94742.16;10596939;27;20027;-75
2021/07/07 11:46:07;;;;;;;10.27;5.22;;;;;;;32.11;37.53;94735.13;10570462;28;20497;-76
2021/07/07 11:51:21;;;;;;;9.02;5.28;;;;;;;32.46;39.13;94738.75;10571058;28;20031;-76
2021/07/07 11:56:24;;;;;;;10.07;4.95;;;;;;;32.38;38.42;94734.47;10570313;28;20405;-75
2021/07/07 12:01:26;;;;;;;6.15;3.40;;;;;;;32.37;38.27;94732.88;10570927;28;20035;-75
2021/07/07 12:06:28;;;;;;;9.02;4.57;;;;;;;32.25;39.19;94727.84;10571213;28;20069;-76
2021/07/07 12:11:29;;;;;;;7.63;4.78;;;;;;;32.27;38.85;94725.47;10571134;28;20023;-76
2021/07/07 12:16:37;;;;;;;5.25;3.75;;;;;;;31.90;38.71;94740.88;10552305;28;20030;-76
2021/07/07 12:21:55;;;;;;;12.43;4.18;;;;;;;31.36;39.01;94728.22;10552396;28;20027;-76
2021/07/07 12:26:57;;;;;;;6.60;4.30;;;;;;;31.18;41.22;94731.91;10570648;28;20035;-76
2021/07/07 12:32:23;;;;;;;4.70;3.83;;;;;;;31.25;39.04;94733.06;10570118;28;20567;-76
2021/07/07 12:37:24;;;;;;;5.97;4.18;;;;;;;31.26;42.15;94737.41;10569284;28;20043;-76
2021/07/07 12:42:36;;;;;;;5.43;4.05;;;;;;;31.26;40.95;94737.41;10576824;28;20027;-76
2021/07/07 12:47:36;;;;;;;8.13;3.58;;;;;;;31.46;40.69;94738.47;10560048;28;20084;-76
2021/07/07 12:52:42;;;;;;;6.05;3.90;;;;;;;31.67;39.30;94742.28;10578641;28;20019;-76
2021/07/07 12:58:07;;;;;;;5.03;3.97;;;;;;;31.89;39.18;94747.66;10578647;28;20043;-76
2021/07/07 13:03:10;;;;;;;5.28;3.17;;;;;;;31.62;39.07;94743.53;10534779;28;20028;-75
2021/07/07 13:08:16;;;;;;;5.20;3.42;;;;;;;31.69;38.11;94751.81;10535374;28;20023;-75
2021/07/07 13:13:27;;;;;;;6.43;3.83;;;;;;;31.66;39.08;94743.50;10536086;28;20019;-75
2021/07/07 13:18:27;;;;;;;4.75;3.72;;;;;;;31.69;38.54;94749.03;10535600;28;20030;-75
2021/07/07 13:23:28;;;;;;;5.78;3.75;;;;;;;31.58;38.52;94742.78;10558987;27;20517;-75
2021/07/07 13:28:28;;;;;;;7.63;4.18;;;;;;;31.49;38.49;94739.63;10572583;27;20815;-75
2021/07/07 13:33:31;;;;;;;6.28;3.75;;;;;;;31.43;38.41;94742.06;10604395;27;20028;-76
2021/07/07 13:38:31;;;;;;;14.35;3.60;;;;;;;31.52;39.03;94739.63;10579406;27;20023;-75
2021/07/07 13:43:35;;;;;;;5.50;4.10;;;;;;;31.26;39.09;94742.97;10580043;27;20020;-74
2021/07/07 13:48:36;;;;;;;7.35;3.90;;;;;;;31.09;38.72;94745.47;10600231;27;20164;-76
2021/07/07 13:53:36;;;;;;;4.93;3.63;;;;;;;30.97;38.90;94745.91;10562189;27;20024;-76
2021/07/07 13:58:36;;;;;;;6.90;3.67;;;;;;;30.87;39.44;94752.28;10591040;27;20035;-76
2021/07/07 14:03:37;;;;;;;5.83;4.03;;;;;;;30.83;39.91;94761.44;10587612;27;20036;-76
2021/07/07 14:08:37;;;;;;;11.88;3.60;;;;;;;30.77;39.72;94757.50;10593493;27;20101;-76
2021/07/07 14:13:38;;;;;;;10.15;4.07;;;;;;;30.74;40.21;94766.66;10590394;27;20027;-76
2021/07/07 14:18:38;;;;;;;6.00;4.00;;;;;;;30.71;40.05;94764.66;10562199;27;20076;-75
2021/07/07 14:23:39;;;;;;;3.53;3.23;;;;;;;30.70;40.45;94767.84;10549165;28;20078;-75
2021/07/07 14:28:39;;;;;;;4.53;3.50;;;;;;;30.51;39.95;94772.69;10539501;28;20103;-75
2021/07/07 14:33:40;;;;;;;5.78;4.10;;;;;;;30.49;39.46;94775.03;10534075;28;20484;-75
2021/07/07 14:38:41;;;;;;;8.25;3.85;;;;;;;30.44;39.68;94761.63;10531242;28;20028;-75
2021/07/07 14:43:42;;;;;;;7.75;3.67;;;;;;;30.31;41.40;94772.31;10529379;28;20564;-75
2021/07/07 14:48:42;;;;;;;5.77;3.60;;;;;;;30.22;41.81;94758.84;10528514;28;20066;-75
2021/07/07 14:53:42;;;;;;;4.33;3.43;;;;;;;30.21;41.99;94756.50;10526450;28;20024;-75
2021/07/07 14:58:43;;;;;;;6.80;4.38;;;;;;;30.11;41.75;94756.09;10508624;28;20095;-75
2021/07/07 15:03:43;;;;;;;10.82;4.30;;;;;;;30.10;42.33;94756.50;10510343;28;20035;-75
2021/07/07 15:08:43;;;;;;;8.07;4.17;;;;;;;29.89;42.35;94751.78;10530211;28;20751;-75
2021/07/07 15:13:44;;;;;;;6.67;4.10;;;;;;;29.79;42.83;94751.41;10530474;28;20028;-75
2021/07/07 15:18:44;;;;;;;4.68;4.00;;;;;;;29.82;43.23;94756.13;10551175;28;20478;-76
2021/07/07 15:23:45;;;;;;;4.53;3.50;;;;;;;29.64;42.66;94758.13;10590238;27;20043;-76
2021/07/07 15:28:48;;;;;;;6.07;4.37;;;;;;;29.62;44.20;94754.97;10614415;27;20027;-75
2021/07/07 15:33:50;;;;;;;8.38;4.95;;;;;;;29.56;43.13;94759.31;10614670;27;20352;-75
2021/07/07 15:38:52;;;;;;;7.82;4.28;;;;;;;29.64;43.36;94770.00;10614464;27;20023;-75
2021/07/07 15:43:52;;;;;;;8.38;4.30;;;;;;;29.54;43.75;94778.31;10572590;27;20031;-75
2021/07/07 15:48:52;;;;;;;9.50;4.17;;;;;;;29.63;43.46;94767.63;10571506;28;20020;-75
2021/07/07 15:53:53;;;;;;;5.03;4.23;;;;;;;29.62;43.59;94769.59;10569537;28;20265;-75
2021/07/07 15:58:53;;;;;;;6.67;3.70;;;;;;;29.53;42.69;94771.16;10565551;28;20023;-75
2021/07/07 16:03:54;;;;;;;11.10;4.37;;;;;;;29.56;43.51;94773.16;10569362;28;20030;-75
2021/07/07 16:08:54;;;;;;;6.40;4.63;;;;;;;29.49;43.68;94777.50;10568286;28;20024;-75
2021/07/07 16:13:55;;;;;;;7.97;3.97;;;;;;;29.41;43.97;94786.22;10569980;28;20098;-75
2021/07/07 16:18:56;;;;;;;7.97;4.30;;;;;;;29.38;43.93;94787.78;10572990;28;20023;-75
2021/07/07 16:23:56;;;;;;;5.55;3.85;;;;;;;29.31;44.02;94785.78;10570130;28;20519;-75
2021/07/07 16:28:58;;;;;;;13.32;4.60;;;;;;;29.22;44.36;94790.09;10570557;28;20059;-75
2021/07/07 16:33:58;;;;;;;6.23;4.07;;;;;;;29.12;45.01;94792.47;10569346;28;20019;-75
2021/07/07 16:38:59;;;;;;;12.40;4.03;;;;;;;29.05;45.16;94805.47;10570460;28;20027;-75
2021/07/07 16:43:59;;;;;;;5.22;3.67;;;;;;;28.93;45.67;94795.59;10569553;28;20034;-75
2021/07/07 16:49:00;;;;;;;7.00;4.60;;;;;;;28.92;45.98;94808.59;10570513;28;20034;-75
2021/07/07 16:54:00;;;;;;;11.18;4.93;;;;;;;28.91;46.48;94823.59;10570650;28;20441;-75
2021/07/07 16:59:01;;;;;;;4.93;4.07;;;;;;;28.82;47.44;94820.44;10570007;28;20023;-75
2021/07/07 17:04:02;;;;;;;10.97;3.97;;;;;;;28.71;47.70;94820.38;10570267;28;20285;-75
2021/07/07 17:09:02;;;;;;;5.75;4.30;;;;;;;28.63;48.61;94829.81;10570239;28;20042;-75
2021/07/07 17:14:03;;;;;;;8.02;4.25;;;;;;;28.64;50.09;94829.44;10586517;28;20734;-75
2021/07/07 17:19:04;;;;;;;6.20;4.30;;;;;;;28.55;52.97;94831.75;10585032;27;20028;-76
2021/07/07 17:24:06;;;;;;;7.85;3.90;;;;;;;28.43;52.55;94841.16;10557547;27;20048;-76
2021/07/07 17:29:07;;;;;;;11.75;4.65;;;;;;;28.28;54.04;94836.72;10516782;28;20074;-75
2021/07/07 17:34:07;;;;;;;14.23;5.25;;;;;;;28.20;56.00;94844.19;10531820;28;20532;-75
2021/07/07 17:39:46;;;;;;;9.57;4.60;;;;;;;28.04;57.57;94843.66;10541017;28;20100;-75
2021/07/07 17:44:47;;;;;;;8.40;4.72;;;;;;;27.97;60.09;94850.66;10529145;28;20100;-75
2021/07/07 17:49:47;;;;;;;6.97;4.33;;;;;;;27.77;62.28;94855.66;10538838;28;20085;-75
2021/07/07 17:54:48;;;;;;;11.43;4.87;;;;;;;27.74;63.89;94861.94;10534146;28;20510;-75
2021/07/07 17:59:48;;;;;;;12.27;4.93;;;;;;;27.67;68.94;94872.13;10539670;28;20281;-75
2021/07/07 18:04:48;;;;;;;12.77;4.67;;;;;;;27.51;72.44;94873.16;10533593;28;20040;-75
2021/07/07 18:09:49;;;;;;;10.97;5.13;;;;;;;27.33;75.79;94881.22;10533360;28;20118;-76
2021/07/07 18:14:50;;;;;;;15.07;4.50;;;;;;;27.23;78.04;94887.41;10536558;28;20024;-75
2021/07/07 18:19:52;;;;;;;6.88;4.95;;;;;;;27.17;81.52;94908.22;10532781;28;20407;-76
2021/07/07 18:24:52;;;;;;;9.10;5.20;;;;;;;27.02;82.41;94908.06;10529037;28;20040;-76
2021/07/07 18:29:52;;;;;;;10.02;5.57;;;;;;;26.98;83.96;94915.50;10531065;28;20407;-76
2021/07/07 18:34:53;;;;;;;10.45;5.80;;;;;;;26.74;84.96;94923.06;10527548;28;20095;-76
2021/07/07 18:39:53;;;;;;;9.50;6.17;;;;;;;26.69;85.12;94923.38;10530831;28;20024;-75
2021/07/07 18:44:54;;;;;;;9.13;6.47;;;;;;;26.65;84.84;94935.50;10512864;28;20056;-75
2021/07/07 18:49:54;;;;;;;12.57;6.20;;;;;;;26.45;86.79;94946.63;10530241;28;20352;-76
2021/07/07 18:54:54;;;;;;;9.68;6.30;;;;;;;26.40;89.82;94953.28;10531710;28;20039;-76
2021/07/07 18:59:55;;;;;;;11.70;6.23;;;;;;;26.36;89.92;94954.34;10547184;28;20114;-75
2021/07/07 19:04:56;;;;;;;21.08;8.50;;;;;;;26.15;90.52;94971.34;10557359;28;20039;-75
2021/07/07 19:10:02;;;;;;;10.93;6.37;;;;;;;26.06;92.07;94977.09;10538227;28;20043;-76
2021/07/07 19:15:04;;;;;;;11.25;6.97;;;;;;;25.96;93.19;94972.97;10551396;28;20246;-75
2021/07/07 19:20:05;;;;;;;15.27;7.05;;;;;;;25.89;96.26;94978.34;10530969;28;20387;-75
2021/07/07 19:25:08;;;;;;;14.30;6.43;;;;;;;25.68;96.03;94971.28;10577964;27;20043;-75
2021/07/07 19:30:11;;;;;;;15.88;6.70;;;;;;;25.60;97.09;94983.31;10580665;27;20036;-77
2021/07/07 19:35:12;;;;;;;17.30;7.22;;;;;;;25.56;99.82;94982.44;10573721;27;20022;-77
2021/07/07 19:40:13;;;;;;;13.45;7.07;;;;;;;25.52;100.00;94979.66;10555577;28;20038;-75
2021/07/07 19:45:14;;;;;;;11.68;7.40;;;;;;;25.41;100.00;94981.38;10569983;28;20031;-77
2021/07/07 19:50:16;;;;;;;11.95;7.38;;;;;;;25.29;100.00;94982.28;10569319;28;20039;-77
2021/07/07 19:55:17;;;;;;;10.55;7.28;;;;;;;25.13;100.00;94984.31;10569907;28;20184;-77
2021/07/07 20:00:27;;;;;;;19.20;8.55;;;;;;;25.06;100.00;94977.50;10548730;27;20051;-76
2021/07/07 20:05:27;;;;;;;9.75;7.00;;;;;;;24.95;100.00;94983.94;10604177;27;20074;-77
2021/07/07 20:10:28;;;;;;;8.40;6.35;;;;;;;24.80;100.00;94982.84;10568386;28;20852;-77
2021/07/07 20:15:29;;;;;;;9.57;6.43;;;;;;;24.71;100.00;94997.56;10571469;27;20096;-77
2021/07/07 20:20:29;;;;;;;7.60;5.75;;;;;;;24.52;100.00;94992.78;10584178;27;20047;-77
2021/07/07 20:25:29;;;;;;;11.93;6.38;;;;;;;24.45;100.00;94994.53;10555484;27;20035;-77
2021/07/07 20:30:30;;;;;;;8.17;5.47;;;;;;;24.36;100.00;94998.28;10569536;28;20380;-77
2021/07/07 20:35:30;;;;;;;8.93;6.10;;;;;;;24.20;100.00;95003.00;10551767;28;20081;-77
2021/07/07 20:40:31;;;;;;;11.97;7.37;;;;;;;24.16;100.00;95002.88;10568100;28;20036;-77
2021/07/07 20:45:31;;;;;;;8.70;6.00;;;;;;;23.93;100.00;94993.66;10568068;28;20461;-77
2021/07/07 20:50:32;;;;;;;6.20;5.30;;;;;;;23.88;100.00;94998.25;10568486;28;20109;-77
2021/07/07 20:55:32;;;;;;;8.20;5.65;;;;;;;23.64;100.00;95004.66;10567781;28;20050;-77
2021/07/07 21:00:32;;;;;;;8.02;5.95;;;;;;;23.44;100.00;95000.94;10598064;27;20091;-77
2021/07/07 21:05:34;;;;;;;8.10;5.38;;;;;;;23.34;100.00;94995.97;10597443;27;20059;-77
2021/07/07 21:10:35;;;;;;;8.63;6.50;;;;;;;23.23;100.00;95001.16;10572443;28;20034;-77
2021/07/07 21:15:36;;;;;;;9.60;5.82;;;;;;;23.25;100.00;95003.53;10583457;27;20483;-77
2021/07/07 21:20:37;;;;;;;8.80;5.93;;;;;;;23.26;100.00;95003.22;10611209;27;20023;-77
2021/07/07 21:25:37;;;;;;;9.18;6.10;;;;;;;22.73;100.00;95002.38;10619747;27;20066;-77
2021/07/07 21:30:37;;;;;;;7.57;5.90;;;;;;;22.64;100.00;95002.50;10616461;27;20042;-77
2021/07/07 21:35:38;;;;;;;7.18;5.75;;;;;;;22.65;100.00;95013.13;10634489;27;20019;-75
2021/07/07 21:40:39;;;;;;;6.93;5.33;;;;;;;22.62;100.00;95011.06;10618087;27;20129;-75
2021/07/07 21:45:40;;;;;;;7.43;5.75;;;;;;;22.43;100.00;95008.91;10616042;27;20291;-75
2021/07/07 21:50:40;;;;;;;10.05;5.90;;;;;;;22.31;100.00;95001.47;10615609;27;20055;-75
2021/07/07 21:55:41;;;;;;;9.43;5.93;;;;;;;22.23;100.00;95007.03;10616179;27;20016;-75
2021/07/07 22:00:41;;;;;;;13.53;7.00;;;;;;;22.08;100.00;95008.53;10615458;27;20051;-75
2021/07/07 22:05:41;;;;;;;9.73;6.90;;;;;;;22.00;100.00;95026.63;10576526;27;21077;-75
2021/07/07 22:10:42;;;;;;;11.37;6.17;;;;;;;21.76;100.00;95019.16;10573416;28;20035;-76
2021/07/07 22:15:43;;;;;;;8.07;6.47;;;;;;;21.56;100.00;95021.63;10569834;28;20444;-76
2021/07/07 22:20:43;;;;;;;9.20;6.07;;;;;;;21.67;100.00;95021.97;10569905;28;20316;-75
2021/07/07 22:25:45;;;;;;;8.15;6.60;;;;;;;21.67;100.00;95036.47;10571754;28;20113;-76
2021/07/07 22:30:45;;;;;;;9.40;6.47;;;;;;;21.71;100.00;95038.53;10571325;28;20085;-76
2021/07/07 22:35:46;;;;;;;9.77;6.43;;;;;;;21.79;100.00;95034.91;10572621;28;20728;-75
2021/07/07 22:40:46;;;;;;;7.97;6.22;;;;;;;21.61;100.00;95034.28;10572287;28;20073;-75
2021/07/07 22:45:47;;;;;;;10.97;6.60;;;;;;;21.55;100.00;95028.22;10571942;28;20493;-75
2021/07/07 22:50:52;;;;;;;9.57;6.43;;;;;;;21.55;100.00;95035.63;10570130;28;20062;-75
2021/07/07 22:55:52;;;;;;;13.38;7.20;;;;;;;21.63;100.00;95032.81;10571573;28;20486;-75
2021/07/07 23:00:52;;;;;;;9.15;6.50;;;;;;;21.73;100.00;95033.53;10571498;28;20111;-75
2021/07/07 23:05:53;;;;;;;9.60;6.43;;;;;;;21.75;100.00;95025.78;10570808;28;20024;-75
2021/07/07 23:10:54;;;;;;;10.68;6.35;;;;;;;21.88;100.00;95032.06;10572006;28;20767;-75